DEL MAR NEARSHORE, CA - 153

GPS Positions

GPS Time
Latitude
Degrees
Longitude
Degrees
Gap
 
Distance
NM
Speed
Knots
Direction
Degrees
2022 Nov 17, 23:59 32.95619° -117.27927° 8 min 0.03 0.02
253°
2022 Nov 17, 23:51 32.95620° -117.27923° 2 min 0.03 0.00
2022 Nov 17, 23:49 32.95620° -117.27923° 8 min 0.03 0.01
270°
2022 Nov 17, 23:41 32.95620° -117.27921° 2 min 0.03 0.00
2022 Nov 17, 23:39 32.95620° -117.27921° 8 min 0.03 0.02
212°
2022 Nov 17, 23:31 32.95623° -117.27919° 2 min 0.03 0.00
2022 Nov 17, 23:29 32.95623° -117.27919° 8 min 0.03 0.01
90°
2022 Nov 17, 23:21 32.95623° -117.27921° 2 min 0.03 0.00
2022 Nov 17, 23:19 32.95623° -117.27921° 8 min 0.03 0.01
90°
2022 Nov 17, 23:11 32.95623° -117.27923° 2 min 0.02 0.00
2022 Nov 17, 23:09 32.95623° -117.27923° 8 min 0.02 0.01
270°
2022 Nov 17, 23:01 32.95623° -117.27921° 2 min 0.03 0.00
2022 Nov 17, 22:59 32.95623° -117.27921° 8 min 0.03 0.00
2022 Nov 17, 22:51 32.95623° -117.27921° 2 min 0.03 0.00
2022 Nov 17, 22:49 32.95623° -117.27921° 8 min 0.03 0.03
51°
2022 Nov 17, 22:41 32.95619° -117.27927° 2 min 0.03 0.03
90°
2022 Nov 17, 22:39 32.95619° -117.27930° 8 min 0.02 0.02
232°
2022 Nov 17, 22:31 32.95622° -117.27925° 2 min 0.02 0.04
239°
2022 Nov 17, 22:29 32.95623° -117.27923° 8 min 0.02 0.04
214°
2022 Nov 17, 22:21 32.95631° -117.27917° 2 min 0.02 0.00
2022 Nov 17, 22:19 32.95631° -117.27917° 8 min 0.02 0.01
239°
2022 Nov 17, 22:11 32.95632° -117.27914° 2 min 0.02 0.03
180°
2022 Nov 17, 22:09 32.95634° -117.27914° 8 min 0.02 0.01
45°
2022 Nov 17, 22:01 32.95632° -117.27917° 2 min 0.02 0.03
270°
2022 Nov 17, 21:59 32.95632° -117.27914° 8 min 0.02 0.01
225°
2022 Nov 17, 21:51 32.95634° -117.27912° 2 min 0.03 0.03
90°
2022 Nov 17, 21:49 32.95634° -117.27914° 8 min 0.02 0.04
47°
2022 Nov 17, 21:41 32.95627° -117.27923° 2 min 0.02 0.07
90°
2022 Nov 17, 21:39 32.95627° -117.27927° 8 min 0.02 0.01
45°
2022 Nov 17, 21:31 32.95625° -117.27930° 2 min 0.02 0.00
2022 Nov 17, 21:29 32.95625° -117.27930° 8 min 0.02 0.02
110°
2022 Nov 17, 21:21 32.95627° -117.27936° 2 min 0.02 0.00
2022 Nov 17, 21:19 32.95627° -117.27936° 8 min 0.02 0.02
223°
2022 Nov 17, 21:11 32.95631° -117.27932° 2 min 0.02 0.07
270°
2022 Nov 17, 21:09 32.95631° -117.27927° 8 min 0.02 0.04
227°
2022 Nov 17, 21:01 32.95637° -117.27919° 2 min 0.02 0.03
270°
2022 Nov 17, 20:59 32.95637° -117.27917° 8 min 0.02 0.01
270°
2022 Nov 17, 20:51 32.95637° -117.27914° 2 min 0.02 0.00
2022 Nov 17, 20:49 32.95637° -117.27914° 8 min 0.02 0.03
36°
2022 Nov 17, 20:41 32.95632° -117.27919° 2 min 0.02 0.03
270°
2022 Nov 17, 20:39 32.95632° -117.27917° 8 min 0.02 0.01
270°
2022 Nov 17, 20:31 32.95632° -117.27914° 1 min 0.02 0.00
2022 Nov 17, 20:29 32.95632° -117.27914° 8 min 0.02 0.01
59°
2022 Nov 17, 20:21 32.95631° -117.27917° 2 min 0.02 0.03
90°
2022 Nov 17, 20:19 32.95631° -117.27919° 8 min 0.02 0.02
29°
2022 Nov 17, 20:11 32.95627° -117.27921° 2 min 0.02 0.03
270°
2022 Nov 17, 20:09 32.95627° -117.27919° 8 min 0.02 0.04
65°
2022 Nov 17, 20:01 32.95623° -117.27930° 2 min 0.02 0.02
2022 Nov 17, 19:59 32.95622° -117.27930° 8 min 0.02 0.01
270°
2022 Nov 17, 19:51 32.95622° -117.27927° 2 min 0.02 0.00
2022 Nov 17, 19:49 32.95622° -117.27927° 8 min 0.02 0.01
45°
2022 Nov 17, 19:41 32.95620° -117.27930° 2 min 0.02 0.09
48°
2022 Nov 17, 19:39 32.95617° -117.27934° 8 min 0.02 0.02
90°
2022 Nov 17, 19:31 32.95617° -117.27940° 2 min 0.02 0.03
90°
2022 Nov 17, 19:29 32.95617° -117.27943° 8 min 0.02 0.04
244°
2022 Nov 17, 19:21 32.95620° -117.27934° 2 min 0.02 0.08
244°
2022 Nov 17, 19:19 32.95622° -117.27930° 8 min 0.02 0.07
228°
2022 Nov 17, 19:11 32.95632° -117.27917° 2 min 0.02 0.07
90°
2022 Nov 17, 19:09 32.95632° -117.27921° 8 min 0.02 0.04
235°
2022 Nov 17, 19:01 32.95637° -117.27912° 2 min 0.02 0.04
2022 Nov 17, 18:59 32.95635° -117.27912° 8 min 0.02 0.01
180°
2022 Nov 17, 18:51 32.95637° -117.27912° 2 min 0.02 0.00
2022 Nov 17, 18:49 32.95637° -117.27912° 8 min 0.02 0.00
2022 Nov 17, 18:41 32.95637° -117.27912° 2 min 0.02 0.00
2022 Nov 17, 18:39 32.95637° -117.27912° 8 min 0.02 0.01
40°
2022 Nov 17, 18:31 32.95635° -117.27914° 2 min 0.02 0.02
2022 Nov 17, 18:29 32.95634° -117.27914° 8 min 0.02 0.01
239°
2022 Nov 17, 18:21 32.95635° -117.27912° 2 min 0.02 0.00
2022 Nov 17, 18:19 32.95635° -117.27912° 8 min 0.02 0.01
180°
2022 Nov 17, 18:11 32.95637° -117.27912° 2 min 0.02 0.00
2022 Nov 17, 18:09 32.95637° -117.27912° 8 min 0.02 0.01
40°
2022 Nov 17, 18:01 32.95635° -117.27914° 2 min 0.02 0.04
180°
2022 Nov 17, 17:59 32.95637° -117.27914° 8 min 0.02 0.02
59°
2022 Nov 17, 17:51 32.95635° -117.27919° 2 min 0.02 0.00
2022 Nov 17, 17:49 32.95635° -117.27919° 8 min 0.02 0.02
32°
2022 Nov 17, 17:41 32.95632° -117.27921° 2 min 0.02 0.03
48°
2022 Nov 17, 17:39 32.95631° -117.27923° 8 min 0.02 0.02
59°
2022 Nov 17, 17:31 32.95628° -117.27927° 2 min 0.02 0.07
73°
2022 Nov 17, 17:29 32.95627° -117.27932° 8 min 0.02 0.06
118°
2022 Nov 17, 17:21 32.95634° -117.27946° 2 min 0.01 0.07
107°
2022 Nov 17, 17:19 32.95635° -117.27951° 7 min 0.01 0.08
112°
2022 Nov 17, 17:11 32.95641° -117.27970° 2 min 0.01 0.10
138°
2022 Nov 17, 17:09 32.95646° -117.27975° 8 min 0.01 0.07
132°
2022 Nov 17, 17:01 32.95655° -117.27988° 2 min 0.02 0.03
90°
2022 Nov 17, 16:59 32.95655° -117.27990° 8 min 0.02 0.04
127°
2022 Nov 17, 16:51 32.95661° -117.27998° 2 min 0.02 0.04
112°
2022 Nov 17, 16:49 32.95662° -117.28001° 8 min 0.02 0.02
32°
2022 Nov 17, 16:41 32.95658° -117.28003° 2 min 0.02 0.00
2022 Nov 17, 16:39 32.95658° -117.28003° 8 min 0.02 0.02
13°
2022 Nov 17, 16:31 32.95653° -117.28004° 2 min 0.02 0.03
312°
2022 Nov 17, 16:29 32.95652° -117.28003° 8 min 0.02 0.01
2022 Nov 17, 16:21 32.95649° -117.28003° 2 min 0.02 0.07
331°
2022 Nov 17, 16:19 32.95646° -117.28001° 8 min 0.02 0.05
326°
2022 Nov 17, 16:11 32.95637° -117.27994° 2 min 0.02 0.04
2022 Nov 17, 16:09 32.95635° -117.27994° 8 min 0.02 0.05
306°
2022 Nov 17, 16:01 32.95628° -117.27983° 2 min 0.02 0.06
290°
2022 Nov 17, 15:59 32.95627° -117.27979° 8 min 0.02 0.07
303°
2022 Nov 17, 15:51 32.95619° -117.27964° 2 min 0.02 0.07
270°
2022 Nov 17, 15:49 32.95619° -117.27959° 8 min 0.02 0.09
267°
2022 Nov 17, 15:41 32.95620° -117.27936° 2 min 0.02 0.03
180°
2022 Nov 17, 15:39 32.95622° -117.27936° 8 min 0.02 0.05
239°
2022 Nov 17, 15:31 32.95627° -117.27925° 2 min 0.02 0.03
270°
2022 Nov 17, 15:29 32.95627° -117.27923° 8 min 0.02 0.03
228°
2022 Nov 17, 15:21 32.95632° -117.27917° 2 min 0.02 0.03
180°
2022 Nov 17, 15:19 32.95634° -117.27917° 8 min 0.02 0.01
2022 Nov 17, 15:11 32.95632° -117.27917° 2 min 0.02 0.00
2022 Nov 17, 15:09 32.95632° -117.27917° 8 min 0.02 0.00
2022 Nov 17, 15:01 32.95632° -117.27917° 2 min 0.02 0.02
2022 Nov 17, 14:59 32.95631° -117.27917° 8 min 0.02 0.00
2022 Nov 17, 14:51 32.95631° -117.27917° 2 min 0.02 0.04
2022 Nov 17, 14:49 32.95628° -117.27917° 8 min 0.02 0.04
83°
2022 Nov 17, 14:41 32.95627° -117.27927° 2 min 0.02 0.00
2022 Nov 17, 14:39 32.95627° -117.27927° 8 min 0.02 0.02
180°
2022 Nov 17, 14:31 32.95631° -117.27927° 2 min 0.02 0.02
180°
2022 Nov 17, 14:29 32.95632° -117.27927° 8 min 0.02 0.02
270°
2022 Nov 17, 14:21 32.95632° -117.27923° 2 min 0.02 0.00
2022 Nov 17, 14:19 32.95632° -117.27923° 8 min 0.02 0.03
40°
2022 Nov 17, 14:11 32.95627° -117.27927° 2 min 0.02 0.00
2022 Nov 17, 14:09 32.95627° -117.27927° 8 min 0.02 0.02
2022 Nov 17, 14:01 32.95623° -117.27927° 2 min 0.02 0.00
2022 Nov 17, 13:59 32.95623° -117.27927° 8 min 0.02 0.02
205°
2022 Nov 17, 13:51 32.95627° -117.27925° 2 min 0.02 0.00
2022 Nov 17, 13:49 32.95627° -117.27925° 8 min 0.02 0.05
207°
2022 Nov 17, 13:41 32.95637° -117.27919° 1 min 0.02 0.05
40°
2022 Nov 17, 13:39 32.95635° -117.27921° 8 min 0.02 0.01
2022 Nov 17, 13:31 32.95634° -117.27921° 2 min 0.02 0.03
2022 Nov 17, 13:29 32.95632° -117.27921° 8 min 0.02 0.01
2022 Nov 17, 13:21 32.95631° -117.27921° 2 min 0.02 0.02
180°
2022 Nov 17, 13:19 32.95632° -117.27921° 8 min 0.02 0.02
232°
2022 Nov 17, 13:11 32.95635° -117.27917° 2 min 0.02 0.05
220°
2022 Nov 17, 13:09 32.95637° -117.27914° 8 min 0.02 0.02
155°
2022 Nov 17, 13:01 32.95641° -117.27917° 2 min 0.02 0.10
180°
2022 Nov 17, 12:59 32.95647° -117.27917° 8 min 0.02 0.05
189°
2022 Nov 17, 12:51 32.95658° -117.27914° 2 min 0.02 0.05
180°
2022 Nov 17, 12:49 32.95662° -117.27914° 8 min 0.02 0.05
145°
2022 Nov 17, 12:41 32.95671° -117.27923° 2 min 0.02 0.03
90°
2022 Nov 17, 12:39 32.95671° -117.27925° 8 min 0.02 0.05
111°
2022 Nov 17, 12:31 32.95676° -117.27938° 2 min 0.02 0.07
107°
2022 Nov 17, 12:29 32.95677° -117.27943° 8 min 0.02 0.06
85°
2022 Nov 17, 12:21 32.95676° -117.27958° 2 min 0.01 0.00
2022 Nov 17, 12:19 32.95676° -117.27958° 8 min 0.01 0.04
115°
2022 Nov 17, 12:11 32.95680° -117.27969° 2 min 0.02 0.03
48°
2022 Nov 17, 12:09 32.95679° -117.27970° 8 min 0.02 0.02
151°
2022 Nov 17, 12:01 32.95682° -117.27972° 2 min 0.02 0.00
2022 Nov 17, 11:59 32.95682° -117.27972° 8 min 0.02 0.01
270°
2022 Nov 17, 11:51 32.95682° -117.27970° 2 min 0.02 0.04
121°
2022 Nov 17, 11:49 32.95683° -117.27972° 8 min 0.02 0.04
83°
2022 Nov 17, 11:41 32.95682° -117.27983° 2 min 0.02 0.07
90°
2022 Nov 17, 11:39 32.95682° -117.27988° 8 min 0.02 0.06
40°
2022 Nov 17, 11:31 32.95671° -117.27998° 2 min 0.02 0.07
29°
2022 Nov 17, 11:29 32.95668° -117.28001° 8 min 0.02 0.05
19°
2022 Nov 17, 11:21 32.95658° -117.28004° 2 min 0.02 0.03
90°
2022 Nov 17, 11:19 32.95658° -117.28007° 8 min 0.03 0.01
180°
2022 Nov 17, 11:11 32.95661° -117.28007° 2 min 0.03 0.03
270°
2022 Nov 17, 11:09 32.95661° -117.28004° 8 min 0.02 0.04
307°
2022 Nov 17, 11:01 32.95655° -117.27996° 2 min 0.02 0.06
2022 Nov 17, 10:59 32.95652° -117.27996° 8 min 0.02 0.06
18°
2022 Nov 17, 10:51 32.95640° -117.28001° 2 min 0.02 0.05
2022 Nov 17, 10:49 32.95637° -117.28001° 8 min 0.02 0.02
2022 Nov 17, 10:41 32.95632° -117.28001° 2 min 0.03 0.03
270°
2022 Nov 17, 10:39 32.95632° -117.27998° 8 min 0.03 0.03
329°
2022 Nov 17, 10:31 32.95625° -117.27994° 2 min 0.03 0.04
2022 Nov 17, 10:29 32.95623° -117.27994° 8 min 0.03 0.04
301°
2022 Nov 17, 10:21 32.95619° -117.27985° 2 min 0.03 0.03
270°
2022 Nov 17, 10:19 32.95619° -117.27983° 8 min 0.03 0.03
301°
2022 Nov 17, 10:11 32.95616° -117.27977° 2 min 0.03 0.00
2022 Nov 17, 10:09 32.95616° -117.27977° 8 min 0.03 0.01
40°
2022 Nov 17, 10:01 32.95613° -117.27979° 1 min 0.03 0.00
2022 Nov 17, 09:59 32.95613° -117.27979° 8 min 0.03 0.01
180°
2022 Nov 17, 09:51 32.95616° -117.27979° 1 min 0.03 0.00
2022 Nov 17, 09:49 32.95616° -117.27979° 8 min 0.03 0.02
205°
2022 Nov 17, 09:41 32.95620° -117.27977° 2 min 0.02 0.03
90°
2022 Nov 17, 09:39 32.95620° -117.27979° 8 min 0.02 0.05
270°
2022 Nov 17, 09:31 32.95620° -117.27966° 2 min 0.02 0.02
2022 Nov 17, 09:29 32.95619° -117.27966° 8 min 0.02 0.01
2022 Nov 17, 09:21 32.95617° -117.27966° 2 min 0.02 0.01
2022 Nov 17, 09:19 32.95616° -117.27966° 8 min 0.02 0.02
2022 Nov 17, 09:11 32.95612° -117.27966° 2 min 0.03 0.04
2022 Nov 17, 09:09 32.95610° -117.27966° 8 min 0.03 0.00
2022 Nov 17, 09:01 32.95610° -117.27966° 2 min 0.03 0.03
90°
2022 Nov 17, 08:59 32.95610° -117.27969° 8 min 0.03 0.00
2022 Nov 17, 08:51 32.95610° -117.27969° 2 min 0.03 0.06
90°
2022 Nov 17, 08:49 32.95610° -117.27972° 8 min 0.03 0.02
121°
2022 Nov 17, 08:41 32.95612° -117.27977° 2 min 0.03 0.00
2022 Nov 17, 08:39 32.95612° -117.27977° 8 min 0.03 0.01
239°
2022 Nov 17, 08:31 32.95613° -117.27975° 2 min 0.03 0.00
2022 Nov 17, 08:29 32.95613° -117.27975° 8 min 0.03 0.01
90°
2022 Nov 17, 08:21 32.95613° -117.27977° 2 min 0.03 0.04
301°
2022 Nov 17, 08:19 32.95612° -117.27975° 8 min 0.03 0.02
270°
2022 Nov 17, 08:11 32.95612° -117.27970° 2 min 0.03 0.03
90°
2022 Nov 17, 08:09 32.95612° -117.27972° 8 min 0.03 0.02
306°
2022 Nov 17, 08:01 32.95610° -117.27969° 2 min 0.03 0.00
2022 Nov 17, 07:59 32.95610° -117.27969° 8 min 0.03 0.01
220°
2022 Nov 17, 07:51 32.95612° -117.27966° 2 min 0.03 0.00
2022 Nov 17, 07:49 32.95612° -117.27966° 8 min 0.03 0.02
110°
2022 Nov 17, 07:41 32.95613° -117.27970° 2 min 0.03 0.03
90°
2022 Nov 17, 07:39 32.95613° -117.27972° 8 min 0.03 0.03
90°
2022 Nov 17, 07:31 32.95613° -117.27981° 2 min 0.03 0.02
270°
2022 Nov 17, 07:29 32.95613° -117.27979° 8 min 0.03 0.01
90°
2022 Nov 17, 07:21 32.95613° -117.27981° 2 min 0.03 0.02
270°
2022 Nov 17, 07:19 32.95613° -117.27979° 8 min 0.03 0.03
108°
2022 Nov 17, 07:11 32.95616° -117.27988° 2 min 0.03 0.00
2022 Nov 17, 07:09 32.95616° -117.27988° 8 min 0.03 0.04
296°
2022 Nov 17, 07:01 32.95612° -117.27979° 2 min 0.03 0.08
301°
2022 Nov 17, 06:59 32.95610° -117.27975° 8 min 0.03 0.03
270°
2022 Nov 17, 06:51 32.95610° -117.27966° 2 min 0.03 0.03
270°
2022 Nov 17, 06:49 32.95610° -117.27964° 8 min 0.03 0.03
270°
2022 Nov 17, 06:41 32.95610° -117.27956° 2 min 0.03 0.03
270°
2022 Nov 17, 06:39 32.95610° -117.27953° 8 min 0.03 0.01
270°
2022 Nov 17, 06:31 32.95610° -117.27951° 2 min 0.03 0.00
2022 Nov 17, 06:29 32.95610° -117.27951° 8 min 0.03 0.02
90°
2022 Nov 17, 06:21 32.95610° -117.27956° 2 min 0.03 0.00
2022 Nov 17, 06:19 32.95610° -117.27956° 8 min 0.03 0.01
2022 Nov 17, 06:11 32.95608° -117.27956° 2 min 0.03 0.00
2022 Nov 17, 06:09 32.95608° -117.27956° 8 min 0.03 0.01
90°
2022 Nov 17, 06:01 32.95608° -117.27958° 1 min 0.03 0.03
180°
2022 Nov 17, 05:59 32.95610° -117.27958° 8 min 0.03 0.00
2022 Nov 17, 05:51 32.95610° -117.27958° 2 min 0.03 0.04
34°
2022 Nov 17, 05:49 32.95608° -117.27959° 8 min 0.03 0.05
100°
2022 Nov 17, 05:41 32.95610° -117.27972° 2 min 0.03 0.03
270°
2022 Nov 17, 05:39 32.95610° -117.27970° 8 min 0.03 0.02
290°
2022 Nov 17, 05:31 32.95608° -117.27964° 2 min 0.03 0.03
90°
2022 Nov 17, 05:29 32.95608° -117.27966° 8 min 0.03 0.00
2022 Nov 17, 05:21 32.95608° -117.27966° 2 min 0.03 0.03
270°
2022 Nov 17, 05:19 32.95608° -117.27964° 8 min 0.03 0.04
277°
2022 Nov 17, 05:11 32.95607° -117.27953° 2 min 0.03 0.04
239°
2022 Nov 17, 05:09 32.95608° -117.27951° 8 min 0.03 0.01
270°
2022 Nov 17, 05:01 32.95608° -117.27949° 2 min 0.03 0.00
2022 Nov 17, 04:59 32.95608° -117.27949° 8 min 0.03 0.01
90°
2022 Nov 17, 04:51 32.95608° -117.27951° 2 min 0.03 0.00
2022 Nov 17, 04:49 32.95608° -117.27951° 8 min 0.03 0.01
225°
2022 Nov 17, 04:41 32.95610° -117.27949° 2 min 0.03 0.05
315°
2022 Nov 17, 04:39 32.95608° -117.27946° 8 min 0.03 0.02
239°
2022 Nov 17, 04:31 32.95610° -117.27943° 2 min 0.03 0.00
2022 Nov 17, 04:29 32.95610° -117.27943° 8 min 0.03 0.02
59°
2022 Nov 17, 04:21 32.95608° -117.27946° 2 min 0.03 0.03
90°
2022 Nov 17, 04:19 32.95608° -117.27949° 8 min 0.03 0.01
135°
2022 Nov 17, 04:11 32.95610° -117.27951° 2 min 0.03 0.03
2022 Nov 17, 04:09 32.95608° -117.27951° 8 min 0.03 0.01
135°
2022 Nov 17, 04:01 32.95610° -117.27953° 2 min 0.03 0.03
270°
2022 Nov 17, 03:59 32.95610° -117.27951° 8 min 0.03 0.01
90°
2022 Nov 17, 03:51 32.95610° -117.27953° 2 min 0.03 0.00
2022 Nov 17, 03:49 32.95610° -117.27953° 8 min 0.03 0.01
45°
2022 Nov 17, 03:41 32.95608° -117.27956° 2 min 0.03 0.05
135°
2022 Nov 17, 03:39 32.95610° -117.27958° 8 min 0.03 0.01
34°
2022 Nov 17, 03:31 32.95608° -117.27959° 2 min 0.03 0.02
270°
2022 Nov 17, 03:29 32.95608° -117.27958° 8 min 0.03 0.01
90°
2022 Nov 17, 03:21 32.95608° -117.27959° 2 min 0.03 0.04
59°
2022 Nov 17, 03:19 32.95607° -117.27962° 8 min 0.03 0.02
107°
2022 Nov 17, 03:11 32.95608° -117.27966° 2 min 0.03 0.00
2022 Nov 17, 03:09 32.95608° -117.27966° 8 min 0.03 0.01
180°
2022 Nov 17, 03:01 32.95610° -117.27966° 2 min 0.03 0.00
2022 Nov 17, 02:59 32.95610° -117.27966° 8 min 0.03 0.01
90°
2022 Nov 17, 02:51 32.95610° -117.27969° 2 min 0.03 0.03
2022 Nov 17, 02:49 32.95608° -117.27969° 8 min 0.03 0.00
2022 Nov 17, 02:41 32.95608° -117.27969° 2 min 0.03 0.00
2022 Nov 17, 02:39 32.95608° -117.27969° 8 min 0.03 0.01
48°
2022 Nov 17, 02:31 32.95607° -117.27970° 2 min 0.03 0.06
270°
2022 Nov 17, 02:29 32.95607° -117.27966° 8 min 0.03 0.03
270°
2022 Nov 17, 02:21 32.95607° -117.27959° 1 min 0.03 0.05
331°
2022 Nov 17, 02:19 32.95605° -117.27958° 8 min 0.03 0.00
2022 Nov 17, 02:11 32.95605° -117.27958° 2 min 0.03 0.08
239°
2022 Nov 17, 02:09 32.95607° -117.27953° 8 min 0.03 0.02
301°
2022 Nov 17, 02:01 32.95605° -117.27949° 2 min 0.03 0.00
2022 Nov 17, 01:59 32.95605° -117.27949° 8 min 0.03 0.01
180°
2022 Nov 17, 01:51 32.95607° -117.27949° 2 min 0.03 0.05
320°
2022 Nov 17, 01:49 32.95605° -117.27946° 8 min 0.03 0.01
90°
2022 Nov 17, 01:41 32.95605° -117.27949° 2 min 0.03 0.00
2022 Nov 17, 01:39 32.95605° -117.27949° 8 min 0.03 0.01
180°
2022 Nov 17, 01:31 32.95607° -117.27949° 2 min 0.03 0.03
270°
2022 Nov 17, 01:29 32.95607° -117.27946° 8 min 0.03 0.01
331°
2022 Nov 17, 01:21 32.95605° -117.27945° 2 min 0.03 0.00
2022 Nov 17, 01:19 32.95605° -117.27945° 8 min 0.03 0.01
90°
2022 Nov 17, 01:11 32.95605° -117.27946° 2 min 0.03 0.05
140°
2022 Nov 17, 01:09 32.95607° -117.27949° 8 min 0.03 0.01
90°
2022 Nov 17, 01:01 32.95607° -117.27951° 2 min 0.03 0.03
270°
2022 Nov 17, 00:59 32.95607° -117.27949° 8 min 0.03 0.00
2022 Nov 17, 00:51 32.95607° -117.27949° 2 min 0.03 0.00
2022 Nov 17, 00:49 32.95607° -117.27949° 8 min 0.03 0.01
270°
2022 Nov 17, 00:41 32.95607° -117.27945° 2 min 0.03 0.06
90°
2022 Nov 17, 00:39 32.95607° -117.27949° 8 min 0.03 0.01
270°
2022 Nov 17, 00:31 32.95607° -117.27946° 2 min 0.03 0.03
90°
2022 Nov 17, 00:29 32.95607° -117.27949° 8 min 0.03 0.03
261°
2022 Nov 17, 00:21 32.95608° -117.27940° 2 min 0.03 0.03
90°
2022 Nov 17, 00:19 32.95608° -117.27943° 8 min 0.03 0.03
234°
2022 Nov 17, 00:11 32.95612° -117.27936° 2 min 0.03 0.02
270°
2022 Nov 17, 00:09 32.95612° -117.27934° 8 min 0.03 0.00
2022 Nov 17, 00:01 32.95612° -117.27934° 2 min 0.03 0.00
2022 Nov 16, 23:59 32.95612° -117.27934° 8 min 0.03 0.00
2022 Nov 16, 23:51 32.95612° -117.27934° 2 min 0.03 0.02
180°
2022 Nov 16, 23:49 32.95613° -117.27934° 8 min 0.03 0.01
270°
2022 Nov 16, 23:41 32.95613° -117.27932° 2 min 0.03 0.00
2022 Nov 16, 23:39 32.95613° -117.27932° 8 min 0.03 0.01
90°
2022 Nov 16, 23:31 32.95613° -117.27934° 2 min 0.03 0.02
2022 Nov 16, 23:29 32.95612° -117.27934° 8 min 0.03 0.01
90°
2022 Nov 16, 23:21 32.95612° -117.27936° 2 min 0.03 0.02
180°
2022 Nov 16, 23:19 32.95613° -117.27936° 8 min 0.03 0.01
2022 Nov 16, 23:11 32.95612° -117.27936° 2 min 0.03 0.00
2022 Nov 16, 23:09 32.95612° -117.27936° 8 min 0.03 0.01
40°
2022 Nov 16, 23:01 32.95610° -117.27938° 2 min 0.03 0.00
2022 Nov 16, 22:59 32.95610° -117.27938° 7 min 0.03 0.01
270°
2022 Nov 16, 22:51 32.95610° -117.27936° 2 min 0.03 0.00
2022 Nov 16, 22:49 32.95610° -117.27936° 8 min 0.03 0.01
270°
2022 Nov 16, 22:41 32.95610° -117.27934° 2 min 0.03 0.05
220°
2022 Nov 16, 22:39 32.95612° -117.27932° 8 min 0.03 0.01
90°
2022 Nov 16, 22:31 32.95612° -117.27934° 2 min 0.03 0.00
2022 Nov 16, 22:29 32.95612° -117.27934° 8 min 0.03 0.00
2022 Nov 16, 22:21 32.95612° -117.27934° 2 min 0.03 0.02
90°
2022 Nov 16, 22:19 32.95612° -117.27936° 8 min 0.03 0.03
261°
2022 Nov 16, 22:11 32.95613° -117.27927° 2 min 0.03 0.00
2022 Nov 16, 22:09 32.95613° -117.27927° 8 min 0.03 0.02
212°
2022 Nov 16, 22:01 32.95617° -117.27925° 2 min 0.03 0.01
2022 Nov 16, 21:59 32.95616° -117.27925° 8 min 0.03 0.00
180°
2022 Nov 16, 21:51 32.95617° -117.27925° 2 min 0.03 0.01
2022 Nov 16, 21:49 32.95616° -117.27925° 8 min 0.03 0.01
90°
2022 Nov 16, 21:41 32.95616° -117.27927° 2 min 0.03 0.00
2022 Nov 16, 21:39 32.95616° -117.27927° 8 min 0.03 0.00
2022 Nov 16, 21:31 32.95616° -117.27927° 2 min 0.03 0.00
2022 Nov 16, 21:29 32.95616° -117.27927° 8 min 0.03 0.01
40°
2022 Nov 16, 21:21 32.95613° -117.27930° 2 min 0.03 0.00
2022 Nov 16, 21:19 32.95613° -117.27930° 8 min 0.03 0.02
77°
2022 Nov 16, 21:11 32.95612° -117.27936° 2 min 0.03 0.00
2022 Nov 16, 21:09 32.95612° -117.27936° 8 min 0.03 0.01
40°
2022 Nov 16, 21:01 32.95610° -117.27938° 2 min 0.03 0.05
140°
2022 Nov 16, 20:59 32.95612° -117.27940° 8 min 0.03 0.03
72°
2022 Nov 16, 20:51 32.95610° -117.27949° 2 min 0.03 0.09
270°
2022 Nov 16, 20:49 32.95610° -117.27943° 8 min 0.03 0.01
180°
2022 Nov 16, 20:41 32.95612° -117.27943° 2 min 0.03 0.04
2022 Nov 16, 20:39 32.95610° -117.27943° 8 min 0.03 0.01
90°
2022 Nov 16, 20:31 32.95610° -117.27945° 2 min 0.03 0.02
90°
2022 Nov 16, 20:29 32.95610° -117.27946° 8 min 0.03 0.02
64°
2022 Nov 16, 20:21 32.95608° -117.27951° 2 min 0.03 0.00
2022 Nov 16, 20:19 32.95608° -117.27951° 8 min 0.03 0.01
59°
2022 Nov 16, 20:11 32.95607° -117.27953° 2 min 0.03 0.04
121°
2022 Nov 16, 20:09 32.95608° -117.27956° 8 min 0.03 0.02
270°
2022 Nov 16, 20:01 32.95608° -117.27951° 2 min 0.03 0.02
2022 Nov 16, 19:59 32.95607° -117.27951° 8 min 0.03 0.01
90°
2022 Nov 16, 19:51 32.95607° -117.27953° 2 min 0.03 0.00
2022 Nov 16, 19:49 32.95607° -117.27953° 8 min 0.03 0.02
90°
2022 Nov 16, 19:41 32.95607° -117.27958° 2 min 0.03 0.02
180°
2022 Nov 16, 19:39 32.95608° -117.27958° 8 min 0.03 0.01
90°
2022 Nov 16, 19:31 32.95608° -117.27962° 2 min 0.03 0.03
90°
2022 Nov 16, 19:29 32.95608° -117.27964° 8 min 0.03 0.02
270°
2022 Nov 16, 19:21 32.95608° -117.27959° 2 min 0.03 0.02
2022 Nov 16, 19:19 32.95607° -117.27959° 8 min 0.03 0.03
98°
2022 Nov 16, 19:11 32.95608° -117.27969° 1 min 0.03 0.06
90°
2022 Nov 16, 19:09 32.95608° -117.27972° 8 min 0.03 0.07
121°
2022 Nov 16, 19:01 32.95616° -117.27988° 1 min 0.03 0.08
155°
2022 Nov 16, 18:59 32.95620° -117.27990° 8 min 0.03 0.02
121°
2022 Nov 16, 18:51 32.95622° -117.27994° 2 min 0.03 0.00
2022 Nov 16, 18:49 32.95622° -117.27994° 8 min 0.03 0.02
328°
2022 Nov 16, 18:41 32.95619° -117.27991° 2 min 0.03 0.05
40°
2022 Nov 16, 18:39 32.95617° -117.27994° 8 min 0.03 0.01
283°
2022 Nov 16, 18:31 32.95616° -117.27990° 2 min 0.03 0.01
180°
2022 Nov 16, 18:29 32.95617° -117.27990° 8 min 0.03 0.00
2022 Nov 16, 18:21 32.95617° -117.27990° 2 min 0.03 0.03
270°
2022 Nov 16, 18:19 32.95617° -117.27988° 8 min 0.03 0.00
2022 Nov 16, 18:11 32.95616° -117.27988° 2 min 0.03 0.03
270°
2022 Nov 16, 18:09 32.95616° -117.27985° 8 min 0.03 0.01
90°
2022 Nov 16, 18:01 32.95616° -117.27988° 2 min 0.03 0.03
270°
2022 Nov 16, 17:59 32.95616° -117.27985° 8 min 0.03 0.01
2022 Nov 16, 17:51 32.95613° -117.27985° 2 min 0.03 0.00
2022 Nov 16, 17:49 32.95613° -117.27985° 8 min 0.03 0.02
287°
2022 Nov 16, 17:41 32.95612° -117.27981° 2 min 0.03 0.02
270°
2022 Nov 16, 17:39 32.95612° -117.27979° 8 min 0.03 0.01
2022 Nov 16, 17:31 32.95610° -117.27979° 2 min 0.03 0.00
2022 Nov 16, 17:29 32.95610° -117.27979° 8 min 0.03 0.03
270°
2022 Nov 16, 17:21 32.95610° -117.27970° 2 min 0.03 0.06
270°
2022 Nov 16, 17:19 32.95610° -117.27966° 8 min 0.03 0.03
270°
2022 Nov 16, 17:11 32.95610° -117.27959° 2 min 0.03 0.03
90°
2022 Nov 16, 17:09 32.95610° -117.27962° 8 min 0.03 0.02
121°
2022 Nov 16, 17:01 32.95612° -117.27966° 2 min 0.03 0.00
2022 Nov 16, 16:59 32.95612° -117.27966° 8 min 0.03 0.03
90°
2022 Nov 16, 16:51 32.95612° -117.27975° 2 min 0.03 0.04
121°
2022 Nov 16, 16:49 32.95613° -117.27977° 8 min 0.03 0.02
126°
2022 Nov 16, 16:41 32.95616° -117.27981° 2 min 0.03 0.05
40°
2022 Nov 16, 16:39 32.95613° -117.27983° 8 min 0.03 0.02
270°
2022 Nov 16, 16:31 32.95613° -117.27977° 2 min 0.03 0.02
2022 Nov 16, 16:29 32.95612° -117.27977° 8 min 0.03 0.02
270°
2022 Nov 16, 16:21 32.95612° -117.27972° 2 min 0.03 0.04
2022 Nov 16, 16:19 32.95610° -117.27972° 8 min 0.03 0.05
270°
2022 Nov 16, 16:11 32.95610° -117.27959° 2 min 0.03 0.03
2022 Nov 16, 16:09 32.95608° -117.27959° 8 min 0.03 0.01
214°
2022 Nov 16, 16:01 32.95610° -117.27958° 2 min 0.03 0.00
2022 Nov 16, 15:59 32.95610° -117.27958° 8 min 0.03 0.01
90°
2022 Nov 16, 15:51 32.95610° -117.27959° 2 min 0.03 0.02
270°
2022 Nov 16, 15:49 32.95610° -117.27958° 7 min 0.03 0.01
2022 Nov 16, 15:41 32.95608° -117.27958° 2 min 0.03 0.03
180°
2022 Nov 16, 15:39 32.95610° -117.27958° 8 min 0.03 0.01
2022 Nov 16, 15:31 32.95608° -117.27958° 2 min 0.03 0.00
2022 Nov 16, 15:29 32.95608° -117.27958° 8 min 0.03 0.03
252°
2022 Nov 16, 15:21 32.95610° -117.27951° 2 min 0.03 0.05
140°
2022 Nov 16, 15:19 32.95612° -117.27953° 8 min 0.02 0.01
320°
2022 Nov 16, 15:11 32.95610° -117.27951° 2 min 0.03 0.04
180°
2022 Nov 16, 15:09 32.95612° -117.27951° 8 min 0.03 0.01
2022 Nov 16, 15:01 32.95610° -117.27951° 2 min 0.03 0.00
2022 Nov 16, 14:59 32.95610° -117.27951° 8 min 0.03 0.00
2022 Nov 16, 14:51 32.95610° -117.27951° 2 min 0.03 0.03
270°
2022 Nov 16, 14:49 32.95610° -117.27949° 8 min 0.03 0.02
234°
2022 Nov 16, 14:41 32.95612° -117.27945° 2 min 0.03 0.03
270°
2022 Nov 16, 14:39 32.95612° -117.27943° 8 min 0.03 0.01
180°
2022 Nov 16, 14:31 32.95613° -117.27943° 2 min 0.03 0.00
2022 Nov 16, 14:29 32.95613° -117.27943° 8 min 0.03 0.01
2022 Nov 16, 14:21 32.95612° -117.27943° 2 min 0.03 0.00
2022 Nov 16, 14:19 32.95612° -117.27943° 8 min 0.03 0.02
90°
2022 Nov 16, 14:11 32.95612° -117.27949° 2 min 0.03 0.03
90°
2022 Nov 16, 14:09 32.95612° -117.27951° 8 min 0.03 0.01
2022 Nov 16, 14:01 32.95610° -117.27951° 2 min 0.03 0.00
2022 Nov 16, 13:59 32.95610° -117.27951° 8 min 0.03 0.02
228°
2022 Nov 16, 13:51 32.95613° -117.27946° 2 min 0.02 0.02
2022 Nov 16, 13:49 32.95612° -117.27946° 8 min 0.03 0.00
2022 Nov 16, 13:41 32.95612° -117.27946° 2 min 0.03 0.00
2022 Nov 16, 13:39 32.95612° -117.27946° 8 min 0.03 0.01
121°
2022 Nov 16, 13:31 32.95613° -117.27949° 2 min 0.02 0.04
180°
2022 Nov 16, 13:29 32.95616° -117.27949° 8 min 0.02 0.02
29°
2022 Nov 16, 13:21 32.95612° -117.27951° 2 min 0.03 0.05
40°
2022 Nov 16, 13:19 32.95610° -117.27953° 8 min 0.03 0.01
140°
2022 Nov 16, 13:11 32.95612° -117.27956° 2 min 0.02 0.00
2022 Nov 16, 13:09 32.95612° -117.27956° 8 min 0.02 0.01
40°
2022 Nov 16, 13:01 32.95610° -117.27958° 2 min 0.03 0.00
2022 Nov 16, 12:59 32.95610° -117.27958° 8 min 0.03 0.03
108°
2022 Nov 16, 12:51 32.95612° -117.27966° 2 min 0.03 0.04
2022 Nov 16, 12:49 32.95610° -117.27966° 8 min 0.03 0.05
102°
2022 Nov 16, 12:41 32.95612° -117.27979° 2 min 0.03 0.02
180°
2022 Nov 16, 12:39 32.95613° -117.27979° 8 min 0.03 0.03
121°
2022 Nov 16, 12:31 32.95617° -117.27985° 2 min 0.03 0.01
2022 Nov 16, 12:29 32.95616° -117.27985° 8 min 0.03 0.07
284°
2022 Nov 16, 12:21 32.95612° -117.27969° 2 min 0.03 0.08
301°
2022 Nov 16, 12:19 32.95610° -117.27964° 8 min 0.03 0.03
246°
2022 Nov 16, 12:11 32.95612° -117.27958° 2 min 0.02 0.00
2022 Nov 16, 12:09 32.95612° -117.27958° 8 min 0.02 0.00
2022 Nov 16, 12:01 32.95612° -117.27958° 2 min 0.02 0.05
29°
2022 Nov 16, 11:59 32.95610° -117.27959° 8 min 0.03 0.01
45°
2022 Nov 16, 11:51 32.95608° -117.27962° 1 min 0.03 0.05
225°
2022 Nov 16, 11:49 32.95610° -117.27959° 8 min 0.03 0.04
270°
2022 Nov 16, 11:41 32.95610° -117.27949° 2 min 0.03 0.06
270°
2022 Nov 16, 11:39 32.95610° -117.27945° 8 min 0.03 0.05
230°
2022 Nov 16, 11:31 32.95617° -117.27936° 2 min 0.02 0.00
2022 Nov 16, 11:29 32.95617° -117.27936° 8 min 0.02 0.01
180°
2022 Nov 16, 11:21 32.95619° -117.27936° 2 min 0.02 0.00
2022 Nov 16, 11:19 32.95619° -117.27936° 8 min 0.02 0.01
270°
2022 Nov 16, 11:11 32.95619° -117.27932° 2 min 0.02 0.04
121°
2022 Nov 16, 11:09 32.95620° -117.27934° 8 min 0.02 0.02
70°
2022 Nov 16, 11:01 32.95619° -117.27938° 2 min 0.02 0.07
90°
2022 Nov 16, 10:59 32.95619° -117.27943° 8 min 0.02 0.05
78°
2022 Nov 16, 10:51 32.95617° -117.27956° 2 min 0.02 0.04
68°
2022 Nov 16, 10:49 32.95616° -117.27958° 8 min 0.02 0.01
270°
2022 Nov 16, 10:41 32.95616° -117.27956° 2 min 0.02 0.00
2022 Nov 16, 10:39 32.95616° -117.27956° 8 min 0.02 0.01
40°
2022 Nov 16, 10:31 32.95613° -117.27958° 2 min 0.02 0.00
2022 Nov 16, 10:29 32.95613° -117.27958° 8 min 0.02 0.01
180°
2022 Nov 16, 10:21 32.95616° -117.27958° 2 min 0.02 0.02
90°
2022 Nov 16, 10:19 32.95616° -117.27959° 8 min 0.02 0.05
124°
2022 Nov 16, 10:11 32.95622° -117.27970° 2 min 0.02 0.09
132°
2022 Nov 16, 10:09 32.95625° -117.27975° 8 min 0.02 0.05
126°
2022 Nov 16, 10:01 32.95632° -117.27985° 2 min 0.02 0.07
73°
2022 Nov 16, 09:59 32.95631° -117.27990° 8 min 0.02 0.03
72°
2022 Nov 16, 09:51 32.95628° -117.27998° 2 min 0.03 0.08
121°
2022 Nov 16, 09:49 32.95631° -117.28003° 8 min 0.03 0.05
319°
2022 Nov 16, 09:41 32.95622° -117.27994° 2 min 0.03 0.10
290°
2022 Nov 16, 09:39 32.95620° -117.27988° 8 min 0.03 0.06
288°
2022 Nov 16, 09:31 32.95616° -117.27972° 2 min 0.02 0.04
2022 Nov 16, 09:29 32.95613° -117.27972° 8 min 0.03 0.02
270°
2022 Nov 16, 09:21 32.95613° -117.27966° 2 min 0.02 0.00
2022 Nov 16, 09:19 32.95613° -117.27966° 8 min 0.02 0.01
2022 Nov 16, 09:11 32.95612° -117.27966° 2 min 0.03 0.03
90°
2022 Nov 16, 09:09 32.95612° -117.27969° 8 min 0.03 0.02
17°
2022 Nov 16, 09:01 32.95608° -117.27970° 2 min 0.03 0.08
155°
2022 Nov 16, 08:59 32.95612° -117.27972° 8 min 0.03 0.00
2022 Nov 16, 08:51 32.95612° -117.27972° 2 min 0.03 0.02
180°
2022 Nov 16, 08:49 32.95613° -117.27972° 8 min 0.03 0.01
180°
2022 Nov 16, 08:41 32.95616° -117.27972° 2 min 0.02 0.03
90°
2022 Nov 16, 08:39 32.95616° -117.27975° 8 min 0.02 0.01
270°
2022 Nov 16, 08:31 32.95616° -117.27972° 2 min 0.02 0.00
2022 Nov 16, 08:29 32.95616° -117.27972° 8 min 0.02 0.02
270°
2022 Nov 16, 08:21 32.95616° -117.27966° 2 min 0.02 0.00
2022 Nov 16, 08:19 32.95616° -117.27966° 8 min 0.02 0.01
103°
2022 Nov 16, 08:11 32.95617° -117.27970° 1 min 0.02 0.03
301°
2022 Nov 16, 08:09 32.95616° -117.27969° 8 min 0.02 0.01
29°
2022 Nov 16, 08:01 32.95613° -117.27970° 2 min 0.03 0.03
90°
2022 Nov 16, 07:59 32.95613° -117.27972° 8 min 0.03 0.01
270°
2022 Nov 16, 07:51 32.95613° -117.27970° 2 min 0.03 0.02
2022 Nov 16, 07:49 32.95612° -117.27970° 8 min 0.03 0.04
114°
2022 Nov 16, 07:41 32.95616° -117.27979° 2 min 0.03 0.04
2022 Nov 16, 07:39 32.95613° -117.27979° 8 min 0.03 0.03
281°
2022 Nov 16, 07:31 32.95612° -117.27972° 2 min 0.03 0.07
306°
2022 Nov 16, 07:29 32.95610° -117.27969° 8 min 0.03 0.00
2022 Nov 16, 07:21 32.95610° -117.27969° 2 min 0.03 0.02
90°
2022 Nov 16, 07:19 32.95610° -117.27970° 8 min 0.03 0.01
45°
2022 Nov 16, 07:11 32.95608° -117.27972° 2 min 0.03 0.07
239°
2022 Nov 16, 07:09 32.95610° -117.27969° 8 min 0.03 0.00
2022 Nov 16, 07:01 32.95610° -117.27969° 2 min 0.03 0.04
180°
2022 Nov 16, 06:59 32.95612° -117.27969° 8 min 0.03 0.01
90°
2022 Nov 16, 06:51 32.95612° -117.27972° 2 min 0.03 0.05
320°
2022 Nov 16, 06:49 32.95610° -117.27970° 8 min 0.03 0.01
326°
2022 Nov 16, 06:41 32.95608° -117.27969° 2 min 0.03 0.03
270°
2022 Nov 16, 06:39 32.95608° -117.27966° 8 min 0.03 0.02
244°
2022 Nov 16, 06:31 32.95610° -117.27962° 2 min 0.03 0.03
2022 Nov 16, 06:29 32.95608° -117.27962° 8 min 0.03 0.01
135°
2022 Nov 16, 06:21 32.95610° -117.27964° 2 min 0.03 0.00
2022 Nov 16, 06:19 32.95610° -117.27964° 8 min 0.03 0.01
315°
2022 Nov 16, 06:11 32.95608° -117.27962° 2 min 0.03 0.03
270°
2022 Nov 16, 06:09 32.95608° -117.27959° 8 min 0.03 0.01
135°
2022 Nov 16, 06:01 32.95610° -117.27962° 2 min 0.03 0.05
315°
2022 Nov 16, 05:59 32.95608° -117.27959° 8 min 0.03 0.02
90°
2022 Nov 16, 05:51 32.95608° -117.27964° 2 min 0.03 0.00
2022 Nov 16, 05:49 32.95608° -117.27964° 8 min 0.03 0.01
90°
2022 Nov 16, 05:41 32.95608° -117.27966° 2 min 0.03 0.00
2022 Nov 16, 05:39 32.95608° -117.27966° 8 min 0.03 0.00
2022 Nov 16, 05:31 32.95608° -117.27966° 2 min 0.03 0.00
2022 Nov 16, 05:29 32.95608° -117.27966° 8 min 0.03 0.00
2022 Nov 16, 05:21 32.95608° -117.27966° 2 min 0.03 0.03
270°
2022 Nov 16, 05:19 32.95608° -117.27964° 8 min 0.03 0.00
2022 Nov 16, 05:11 32.95608° -117.27964° 2 min 0.03 0.00
2022 Nov 16, 05:09 32.95608° -117.27964° 8 min 0.03 0.01
90°
2022 Nov 16, 05:01 32.95608° -117.27966° 2 min 0.03 0.00
2022 Nov 16, 04:59 32.95608° -117.27966° 8 min 0.03 0.03
105°
2022 Nov 16, 04:51 32.95610° -117.27975° 2 min 0.03 0.00
2022 Nov 16, 04:49 32.95610° -117.27975° 8 min 0.03 0.00
2022 Nov 16, 04:41 32.95610° -117.27975° 1 min 0.03 0.00
2022 Nov 16, 04:39 32.95610° -117.27975° 8 min 0.03 0.03
285°
2022 Nov 16, 04:31 32.95608° -117.27966° 2 min 0.03 0.00
2022 Nov 16, 04:29 32.95608° -117.27966° 8 min 0.03 0.02
244°
2022 Nov 16, 04:21 32.95610° -117.27962° 2 min 0.03 0.05
45°
2022 Nov 16, 04:19 32.95608° -117.27964° 8 min 0.03 0.01
2022 Nov 16, 04:11 32.95607° -117.27964° 2 min 0.03 0.04
121°
2022 Nov 16, 04:09 32.95608° -117.27966° 8 min 0.03 0.00
2022 Nov 16, 04:01 32.95608° -117.27966° 2 min 0.03 0.03
180°
2022 Nov 16, 03:59 32.95610° -117.27966° 8 min 0.03 0.01
90°
2022 Nov 16, 03:51 32.95610° -117.27970° 2 min 0.03 0.05
209°
2022 Nov 16, 03:49 32.95612° -117.27969° 8 min 0.03 0.01
29°
2022 Nov 16, 03:41 32.95610° -117.27970° 2 min 0.03 0.03
90°
2022 Nov 16, 03:39 32.95610° -117.27972° 8 min 0.03 0.01
270°
2022 Nov 16, 03:31 32.95610° -117.27970° 2 min 0.03 0.07
301°
2022 Nov 16, 03:29 32.95608° -117.27966° 8 min 0.03 0.03
270°
2022 Nov 16, 03:21 32.95608° -117.27958° 2 min 0.03 0.00
2022 Nov 16, 03:19 32.95608° -117.27958° 8 min 0.03 0.02
270°
2022 Nov 16, 03:11 32.95608° -117.27953° 2 min 0.03 0.05
225°
2022 Nov 16, 03:09 32.95610° -117.27951° 8 min 0.03 0.00
2022 Nov 16, 03:01 32.95610° -117.27951° 2 min 0.03 0.00
2022 Nov 16, 02:59 32.95610° -117.27951° 8 min 0.03 0.02
239°
2022 Nov 16, 02:51 32.95612° -117.27946° 2 min 0.03 0.00
2022 Nov 16, 02:49 32.95612° -117.27946° 8 min 0.03 0.01
270°
2022 Nov 16, 02:41 32.95612° -117.27943° 2 min 0.03 0.03
90°
2022 Nov 16, 02:39 32.95612° -117.27945° 8 min 0.03 0.01
320°
2022 Nov 16, 02:31 32.95610° -117.27943° 2 min 0.03 0.00
2022 Nov 16, 02:29 32.95610° -117.27943° 8 min 0.03 0.01
2022 Nov 16, 02:21 32.95608° -117.27943° 2 min 0.03 0.03
90°
2022 Nov 16, 02:19 32.95608° -117.27945° 8 min 0.03 0.01
90°
2022 Nov 16, 02:11 32.95608° -117.27946° 2 min 0.03 0.03
180°
2022 Nov 16, 02:09 32.95610° -117.27946° 8 min 0.03 0.01
45°
2022 Nov 16, 02:01 32.95608° -117.27949° 2 min 0.03 0.03
90°
2022 Nov 16, 01:59 32.95608° -117.27951° 8 min 0.03 0.00
2022 Nov 16, 01:51 32.95608° -117.27951° 2 min 0.03 0.07
270°
2022 Nov 16, 01:49 32.95608° -117.27946° 8 min 0.03 0.00
2022 Nov 16, 01:41 32.95608° -117.27946° 2 min 0.03 0.00
2022 Nov 16, 01:39 32.95608° -117.27946° 8 min 0.03 0.01
90°
2022 Nov 16, 01:31 32.95608° -117.27949° 2 min 0.03 0.00
2022 Nov 16, 01:29 32.95608° -117.27949° 8 min 0.03 0.02
270°
2022 Nov 16, 01:21 32.95608° -117.27943° 2 min 0.03 0.03
180°
2022 Nov 16, 01:19 32.95610° -117.27943° 8 min 0.03 0.01
90°
2022 Nov 16, 01:11 32.95610° -117.27945° 2 min 0.03 0.03
270°
2022 Nov 16, 01:09 32.95610° -117.27943° 8 min 0.03 0.00
2022 Nov 16, 01:01 32.95610° -117.27943° 1 min 0.03 0.00
2022 Nov 16, 00:59 32.95610° -117.27943° 8 min 0.03 0.01
2022 Nov 16, 00:51 32.95608° -117.27943° 2 min 0.03 0.00
2022 Nov 16, 00:49 32.95608° -117.27943° 8 min 0.03 0.01
180°
2022 Nov 16, 00:41 32.95610° -117.27943° 2 min 0.03 0.05
45°
2022 Nov 16, 00:39 32.95608° -117.27945° 8 min 0.03 0.00
2022 Nov 16, 00:31 32.95608° -117.27945° 2 min 0.03 0.00
2022 Nov 16, 00:29 32.95608° -117.27945° 8 min 0.03 0.01
90°
2022 Nov 16, 00:21 32.95608° -117.27946° 2 min 0.03 0.07
239°
2022 Nov 16, 00:19 32.95610° -117.27943° 8 min 0.03 0.01
2022 Nov 16, 00:11 32.95608° -117.27943° 2 min 0.03 0.00
2022 Nov 16, 00:09 32.95608° -117.27943° 8 min 0.03 0.01
90°
2022 Nov 16, 00:01 32.95608° -117.27946° 2 min 0.03 0.02
270°
2022 Nov 15, 23:59 32.95608° -117.27945° 8 min 0.03 0.02
270°
2022 Nov 15, 23:51 32.95608° -117.27940° 2 min 0.03 0.03
180°
2022 Nov 15, 23:49 32.95610° -117.27940° 8 min 0.03 0.01
45°
2022 Nov 15, 23:41 32.95608° -117.27943° 2 min 0.03 0.00
2022 Nov 15, 23:39 32.95608° -117.27943° 8 min 0.03 0.03
255°
2022 Nov 15, 23:31 32.95610° -117.27934° 2 min 0.03 0.04
180°
2022 Nov 15, 23:29 32.95612° -117.27934° 8 min 0.03 0.00
2022 Nov 15, 23:21 32.95612° -117.27934° 2 min 0.03 0.02
90°
2022 Nov 15, 23:19 32.95612° -117.27936° 8 min 0.03 0.01
2022 Nov 15, 23:11 32.95610° -117.27936° 2 min 0.03 0.00
2022 Nov 15, 23:09 32.95610° -117.27936° 8 min 0.03 0.02
64°
2022 Nov 15, 23:01 32.95608° -117.27940° 2 min 0.03 0.00
2022 Nov 15, 22:59 32.95608° -117.27940° 8 min 0.03 0.02
270°
2022 Nov 15, 22:51 32.95608° -117.27936° 2 min 0.03 0.07
90°
2022 Nov 15, 22:49 32.95608° -117.27940° 8 min 0.03 0.01
270°
2022 Nov 15, 22:41 32.95608° -117.27938° 2 min 0.03 0.03
270°
2022 Nov 15, 22:39 32.95608° -117.27936° 8 min 0.03 0.01
180°
2022 Nov 15, 22:31 32.95610° -117.27936° 2 min 0.03 0.00
2022 Nov 15, 22:29 32.95610° -117.27936° 8 min 0.03 0.03
246°
2022 Nov 15, 22:21 32.95612° -117.27930° 2 min 0.03 0.00
2022 Nov 15, 22:19 32.95612° -117.27930° 8 min 0.03 0.00
2022 Nov 15, 22:11 32.95612° -117.27930° 2 min 0.03 0.00
2022 Nov 15, 22:09 32.95612° -117.27930° 8 min 0.03 0.01
90°
2022 Nov 15, 22:01 32.95612° -117.27932° 2 min 0.03 0.05
40°
2022 Nov 15, 21:59 32.95610° -117.27934° 8 min 0.03 0.01
90°
2022 Nov 15, 21:51 32.95610° -117.27936° 2 min 0.03 0.02
270°
2022 Nov 15, 21:49 32.95610° -117.27934° 8 min 0.03 0.01
220°
2022 Nov 15, 21:41 32.95612° -117.27932° 2 min 0.03 0.00
2022 Nov 15, 21:39 32.95612° -117.27932° 7 min 0.03 0.01
180°
2022 Nov 15, 21:31 32.95613° -117.27932° 2 min 0.03 0.04
59°
2022 Nov 15, 21:29 32.95612° -117.27934° 8 min 0.03 0.02
253°
2022 Nov 15, 21:21 32.95613° -117.27930° 2 min 0.03 0.00
2022 Nov 15, 21:19 32.95613° -117.27930° 8 min 0.03 0.01
90°
2022 Nov 15, 21:11 32.95613° -117.27932° 2 min 0.03 0.00
2022 Nov 15, 21:09 32.95613° -117.27932° 8 min 0.03 0.00
2022 Nov 15, 21:01 32.95613° -117.27932° 1 min 0.03 0.00
2022 Nov 15, 20:59 32.95613° -117.27932° 8 min 0.03 0.00
2022 Nov 15, 20:51 32.95613° -117.27932° 2 min 0.03 0.00
2022 Nov 15, 20:49 32.95613° -117.27932° 8 min 0.03 0.02
70°
2022 Nov 15, 20:41 32.95612° -117.27936° 2 min 0.03 0.00
2022 Nov 15, 20:39 32.95612° -117.27936° 8 min 0.03 0.02
250°
2022 Nov 15, 20:31 32.95613° -117.27932° 2 min 0.03 0.00
2022 Nov 15, 20:29 32.95613° -117.27932° 8 min 0.03 0.01
140°
2022 Nov 15, 20:21 32.95616° -117.27934° 2 min 0.03 0.05
320°
2022 Nov 15, 20:19 32.95613° -117.27932° 8 min 0.03 0.00
2022 Nov 15, 20:11 32.95613° -117.27932° 2 min 0.03 0.03
270°
2022 Nov 15, 20:09 32.95613° -117.27930° 8 min 0.03 0.01
140°
2022 Nov 15, 20:01 32.95616° -117.27932° 2 min 0.03 0.05
40°
2022 Nov 15, 19:59 32.95613° -117.27934° 8 min 0.03 0.01
90°
2022 Nov 15, 19:51 32.95613° -117.27936° 2 min 0.03 0.02
270°
2022 Nov 15, 19:49 32.95613° -117.27934° 8 min 0.03 0.02
70°
2022 Nov 15, 19:41 32.95612° -117.27938° 2 min 0.03 0.00
2022 Nov 15, 19:39 32.95612° -117.27938° 8 min 0.03 0.00
2022 Nov 15, 19:31 32.95612° -117.27938° 2 min 0.03 0.00
2022 Nov 15, 19:29 32.95612° -117.27938° 8 min 0.03 0.01
180°
2022 Nov 15, 19:21 32.95613° -117.27938° 2 min 0.03 0.03
90°
2022 Nov 15, 19:19 32.95613° -117.27940° 8 min 0.03 0.01
301°
2022 Nov 15, 19:11 32.95612° -117.27938° 2 min 0.03 0.02
180°
2022 Nov 15, 19:09 32.95613° -117.27938° 8 min 0.03 0.00
2022 Nov 15, 19:01 32.95613° -117.27938° 2 min 0.03 0.03
270°
2022 Nov 15, 18:59 32.95613° -117.27936° 8 min 0.03 0.00
2022 Nov 15, 18:51 32.95613° -117.27936° 2 min 0.03 0.00
2022 Nov 15, 18:49 32.95613° -117.27936° 8 min 0.03 0.01
90°
2022 Nov 15, 18:41 32.95613° -117.27938° 2 min 0.03 0.03
90°
2022 Nov 15, 18:39 32.95613° -117.27940° 8 min 0.03 0.01
59°
2022 Nov 15, 18:31 32.95612° -117.27943° 2 min 0.03 0.00
2022 Nov 15, 18:29 32.95612° -117.27943° 8 min 0.03 0.03
72°
2022 Nov 15, 18:21 32.95610° -117.27951° 2 min 0.03 0.00
2022 Nov 15, 18:19 32.95610° -117.27951° 8 min 0.03 0.05
252°
2022 Nov 15, 18:11 32.95613° -117.27938° 2 min 0.03 0.00
2022 Nov 15, 18:09 32.95613° -117.27938° 7 min 0.03 0.03
79°
2022 Nov 15, 18:01 32.95612° -117.27945° 2 min 0.03 0.02
90°
2022 Nov 15, 17:59 32.95612° -117.27946° 8 min 0.03 0.02
250°
2022 Nov 15, 17:51 32.95613° -117.27943° 2 min 0.03 0.08
239°
2022 Nov 15, 17:49 32.95616° -117.27938° 8 min 0.02 0.01
248°
2022 Nov 15, 17:41 32.95617° -117.27936° 2 min 0.02 0.05
209°
2022 Nov 15, 17:39 32.95619° -117.27934° 8 min 0.02 0.01
29°
2022 Nov 15, 17:31 32.95617° -117.27936° 2 min 0.02 0.04
180°
2022 Nov 15, 17:29 32.95619° -117.27936° 8 min 0.02 0.03
90°
2022 Nov 15, 17:21 32.95619° -117.27943° 2 min 0.02 0.00
2022 Nov 15, 17:19 32.95619° -117.27943° 8 min 0.02 0.01
90°
2022 Nov 15, 17:11 32.95619° -117.27946° 2 min 0.02 0.04
121°
2022 Nov 15, 17:09 32.95620° -117.27949° 8 min 0.02 0.05
138°
2022 Nov 15, 17:01 32.95628° -117.27958° 2 min 0.02 0.06
180°
2022 Nov 15, 16:59 32.95632° -117.27958° 8 min 0.01 0.05
189°
2022 Nov 15, 16:51 32.95644° -117.27956° 2 min 0.01 0.05
180°
2022 Nov 15, 16:49 32.95647° -117.27956° 8 min 0.00 0.03
164°
2022 Nov 15, 16:41 32.95653° -117.27958° 2 min 0.00 0.02
2022 Nov 15, 16:39 32.95652° -117.27958° 8 min 0.00 0.02
180°
2022 Nov 15, 16:31 32.95655° -117.27958° 2 min 0.00 0.03
121°
2022 Nov 15, 16:29 32.95656° -117.27959° 8 min 0.00 0.01
209°
2022 Nov 15, 16:21 32.95658° -117.27958° 2 min 0.00 0.05
151°
2022 Nov 15, 16:19 32.95661° -117.27959° 8 min 0.00 0.00
2022 Nov 15, 16:11 32.95661° -117.27959° 2 min 0.00 0.00
2022 Nov 15, 16:09 32.95661° -117.27959° 8 min 0.00 0.01
239°
2022 Nov 15, 16:01 32.95662° -117.27958° 2 min 0.00 0.01
2022 Nov 15, 15:59 32.95661° -117.27958° 8 min 0.00 0.01
248°
2022 Nov 15, 15:51 32.95662° -117.27956° 2 min 0.00 0.07
270°
2022 Nov 15, 15:49 32.95662° -117.27951° 8 min 0.01 0.03
82°
2022 Nov 15, 15:41 32.95661° -117.27958° 2 min 0.00 0.05
29°
2022 Nov 15, 15:39 32.95658° -117.27959° 8 min 0.00 0.04
73°
2022 Nov 15, 15:31 32.95656° -117.27969° 2 min 0.01 0.00
2022 Nov 15, 15:29 32.95656° -117.27969° 8 min 0.01 0.01
151°
2022 Nov 15, 15:21 32.95658° -117.27970° 2 min 0.01 0.00
2022 Nov 15, 15:19 32.95658° -117.27970° 8 min 0.01 0.01
180°
2022 Nov 15, 15:11 32.95661° -117.27970° 2 min 0.01 0.03
239°
2022 Nov 15, 15:09 32.95662° -117.27969° 8 min 0.01 0.01
151°
2022 Nov 15, 15:01 32.95664° -117.27970° 2 min 0.01 0.03
90°
2022 Nov 15, 14:59 32.95664° -117.27972° 8 min 0.01 0.03
2022 Nov 15, 14:51 32.95656° -117.27972° 2 min 0.01 0.05
2022 Nov 15, 14:49 32.95653° -117.27972° 8 min 0.01 0.02
328°
2022 Nov 15, 14:41 32.95650° -117.27970° 2 min 0.01 0.00
2022 Nov 15, 14:39 32.95650° -117.27970° 8 min 0.01 0.02
193°
2022 Nov 15, 14:31 32.95655° -117.27969° 1 min 0.01 0.03
270°
2022 Nov 15, 14:29 32.95655° -117.27966° 8 min 0.01 0.03
200°
2022 Nov 15, 14:21 32.95661° -117.27964° 2 min 0.01 0.00
2022 Nov 15, 14:19 32.95661° -117.27964° 8 min 0.01 0.02
270°
2022 Nov 15, 14:11 32.95661° -117.27959° 2 min 0.00 0.01
180°
2022 Nov 15, 14:09 32.95662° -117.27959° 8 min 0.00 0.00
2022 Nov 15, 14:01 32.95662° -117.27959° 2 min 0.00 0.05
209°
2022 Nov 15, 13:59 32.95664° -117.27958° 8 min 0.01 0.01
132°
2022 Nov 15, 13:51 32.95665° -117.27959° 2 min 0.01 0.05
180°
2022 Nov 15, 13:49 32.95668° -117.27959° 8 min 0.01 0.01
2022 Nov 15, 13:41 32.95665° -117.27959° 2 min 0.01 0.00
2022 Nov 15, 13:39 32.95665° -117.27959° 8 min 0.01 0.02
343°
2022 Nov 15, 13:31 32.95661° -117.27958° 2 min 0.00 0.03
270°
2022 Nov 15, 13:29 32.95661° -117.27956° 8 min 0.00 0.02
23°
2022 Nov 15, 13:21 32.95656° -117.27958° 2 min 0.00 0.01
2022 Nov 15, 13:19 32.95655° -117.27958° 8 min 0.00 0.04
20°
2022 Nov 15, 13:11 32.95647° -117.27962° 2 min 0.01 0.06
32°
2022 Nov 15, 13:09 32.95644° -117.27964° 8 min 0.01 0.02
90°
2022 Nov 15, 13:01 32.95644° -117.27969° 2 min 0.01 0.02
90°
2022 Nov 15, 12:59 32.95644° -117.27970° 8 min 0.01 0.03
31°
2022 Nov 15, 12:51 32.95637° -117.27975° 2 min 0.01 0.06
2022 Nov 15, 12:49 32.95634° -117.27975° 8 min 0.02 0.04
2022 Nov 15, 12:41 32.95625° -117.27975° 2 min 0.02 0.04
2022 Nov 15, 12:39 32.95623° -117.27975° 8 min 0.02 0.02
73°
2022 Nov 15, 12:31 32.95622° -117.27979° 2 min 0.02 0.00
2022 Nov 15, 12:29 32.95622° -117.27979° 8 min 0.02 0.01
34°
2022 Nov 15, 12:21 32.95620° -117.27981° 2 min 0.02 0.00
2022 Nov 15, 12:19 32.95620° -117.27981° 8 min 0.02 0.01
2022 Nov 15, 12:11 32.95619° -117.27981° 2 min 0.02 0.05
331°
2022 Nov 15, 12:09 32.95617° -117.27979° 8 min 0.03 0.00
2022 Nov 15, 12:01 32.95616° -117.27979° 2 min 0.03 0.01
180°
2022 Nov 15, 11:59 32.95617° -117.27979° 8 min 0.03 0.03
114°
2022 Nov 15, 11:51 32.95619° -117.27985° 2 min 0.03 0.03
90°
2022 Nov 15, 11:49 32.95619° -117.27988° 8 min 0.03 0.00
2022 Nov 15, 11:41 32.95619° -117.27988° 2 min 0.03 0.05
320°
2022 Nov 15, 11:39 32.95617° -117.27985° 8 min 0.03 0.02
281°
2022 Nov 15, 11:31 32.95616° -117.27981° 2 min 0.03 0.02
270°
2022 Nov 15, 11:29 32.95616° -117.27979° 8 min 0.03 0.00
180°
2022 Nov 15, 11:21 32.95617° -117.27979° 2 min 0.03 0.02
90°
2022 Nov 15, 11:19 32.95617° -117.27981° 8 min 0.03 0.02
90°
2022 Nov 15, 11:11 32.95617° -117.27985° 2 min 0.03 0.04
292°
2022 Nov 15, 11:09 32.95616° -117.27983° 8 min 0.03 0.00
2022 Nov 15, 11:01 32.95616° -117.27983° 2 min 0.03 0.00
2022 Nov 15, 10:59 32.95616° -117.27983° 8 min 0.03 0.04
291°
2022 Nov 15, 10:51 32.95612° -117.27972° 1 min 0.03 0.00
2022 Nov 15, 10:49 32.95612° -117.27972° 8 min 0.03 0.02
270°
2022 Nov 15, 10:41 32.95612° -117.27966° 2 min 0.03 0.00
2022 Nov 15, 10:39 32.95612° -117.27966° 8 min 0.03 0.01
270°
2022 Nov 15, 10:31 32.95612° -117.27964° 2 min 0.03 0.03
270°
2022 Nov 15, 10:29 32.95612° -117.27962° 8 min 0.03 0.01
270°
2022 Nov 15, 10:21 32.95612° -117.27959° 2 min 0.03 0.00
2022 Nov 15, 10:19 32.95612° -117.27959° 8 min 0.03 0.01
270°
2022 Nov 15, 10:11 32.95612° -117.27958° 2 min 0.02 0.00
2022 Nov 15, 10:09 32.95612° -117.27958° 8 min 0.02 0.01
90°
2022 Nov 15, 10:01 32.95612° -117.27962° 2 min 0.03 0.00
2022 Nov 15, 09:59 32.95612° -117.27962° 8 min 0.03 0.01
180°
2022 Nov 15, 09:51 32.95613° -117.27962° 2 min 0.02 0.03
90°
2022 Nov 15, 09:49 32.95613° -117.27964° 8 min 0.02 0.01
301°
2022 Nov 15, 09:41 32.95612° -117.27962° 2 min 0.03 0.00
2022 Nov 15, 09:39 32.95612° -117.27962° 8 min 0.03 0.01
270°
2022 Nov 15, 09:31 32.95612° -117.27959° 2 min 0.03 0.00
2022 Nov 15, 09:29 32.95612° -117.27959° 8 min 0.03 0.01
270°
2022 Nov 15, 09:21 32.95612° -117.27956° 2 min 0.02 0.05
320°
2022 Nov 15, 09:19 32.95610° -117.27953° 8 min 0.03 0.01
90°
2022 Nov 15, 09:11 32.95610° -117.27956° 2 min 0.03 0.03
90°
2022 Nov 15, 09:09 32.95610° -117.27958° 8 min 0.03 0.01
90°
2022 Nov 15, 09:01 32.95610° -117.27959° 2 min 0.03 0.00
2022 Nov 15, 08:59 32.95610° -117.27959° 8 min 0.03 0.02
121°
2022 Nov 15, 08:51 32.95612° -117.27964° 2 min 0.03 0.00
2022 Nov 15, 08:49 32.95612° -117.27964° 8 min 0.03 0.01
180°
2022 Nov 15, 08:41 32.95613° -117.27964° 2 min 0.02 0.00
2022 Nov 15, 08:39 32.95613° -117.27964° 8 min 0.02 0.01
90°
2022 Nov 15, 08:31 32.95613° -117.27966° 2 min 0.02 0.02
2022 Nov 15, 08:29 32.95612° -117.27966° 8 min 0.03 0.01
90°
2022 Nov 15, 08:21 32.95612° -117.27969° 2 min 0.03 0.04
239°
2022 Nov 15, 08:19 32.95613° -117.27966° 8 min 0.02 0.01
59°
2022 Nov 15, 08:11 32.95612° -117.27969° 2 min 0.03 0.00
2022 Nov 15, 08:09 32.95612° -117.27969° 8 min 0.03 0.02
270°
2022 Nov 15, 08:01 32.95612° -117.27964° 2 min 0.03 0.03
270°
2022 Nov 15, 07:59 32.95612° -117.27962° 8 min 0.03 0.00
2022 Nov 15, 07:51 32.95612° -117.27962° 2 min 0.03 0.00
2022 Nov 15, 07:49 32.95612° -117.27962° 8 min 0.03 0.01
90°
2022 Nov 15, 07:41 32.95612° -117.27964° 2 min 0.03 0.03
90°
2022 Nov 15, 07:39 32.95612° -117.27966° 8 min 0.03 0.01
90°
2022 Nov 15, 07:31 32.95612° -117.27969° 2 min 0.03 0.02
90°
2022 Nov 15, 07:29 32.95612° -117.27970° 8 min 0.03 0.01
121°
2022 Nov 15, 07:21 32.95613° -117.27972° 2 min 0.03 0.03
90°
2022 Nov 15, 07:19 32.95613° -117.27975° 8 min 0.03 0.03
114°
2022 Nov 15, 07:11 32.95616° -117.27981° 1 min 0.03 0.03
90°
2022 Nov 15, 07:09 32.95616° -117.27983° 8 min 0.03 0.01
112°
2022 Nov 15, 07:01 32.95617° -117.27985° 2 min 0.03 0.04
292°
2022 Nov 15, 06:59 32.95616° -117.27983° 8 min 0.03 0.01
270°
2022 Nov 15, 06:51 32.95616° -117.27981° 2 min 0.03 0.00
2022 Nov 15, 06:49 32.95616° -117.27981° 8 min 0.03 0.01
331°
2022 Nov 15, 06:41 32.95613° -117.27979° 2 min 0.03 0.04
180°
2022 Nov 15, 06:39 32.95616° -117.27979° 8 min 0.03 0.01
320°
2022 Nov 15, 06:31 32.95613° -117.27977° 2 min 0.03 0.00
2022 Nov 15, 06:29 32.95613° -117.27977° 8 min 0.03 0.02
287°
2022 Nov 15, 06:21 32.95612° -117.27972° 2 min 0.03 0.05
320°
2022 Nov 15, 06:19 32.95610° -117.27970° 8 min 0.03 0.01
209°
2022 Nov 15, 06:11 32.95612° -117.27969° 2 min 0.03 0.00
2022 Nov 15, 06:09 32.95612° -117.27969° 8 min 0.03 0.01
320°
2022 Nov 15, 06:01 32.95610° -117.27966° 2 min 0.03 0.00
2022 Nov 15, 05:59 32.95610° -117.27966° 8 min 0.03 0.00
2022 Nov 15, 05:51 32.95610° -117.27966° 2 min 0.03 0.00
2022 Nov 15, 05:49 32.95610° -117.27966° 8 min 0.03 0.01
270°
2022 Nov 15, 05:41 32.95610° -117.27964° 2 min 0.03 0.03
2022 Nov 15, 05:39 32.95608° -117.27964° 8 min 0.03 0.01
135°
2022 Nov 15, 05:31 32.95610° -117.27966° 2 min 0.03 0.06
90°
2022 Nov 15, 05:29 32.95610° -117.27970° 8 min 0.03 0.01
270°
2022 Nov 15, 05:21 32.95610° -117.27969° 2 min 0.03 0.03
270°
2022 Nov 15, 05:19 32.95610° -117.27966° 8 min 0.03 0.00
2022 Nov 15, 05:11 32.95610° -117.27966° 2 min 0.03 0.00
2022 Nov 15, 05:09 32.95610° -117.27966° 8 min 0.03 0.00
2022 Nov 15, 05:01 32.95610° -117.27966° 2 min 0.03 0.00
2022 Nov 15, 04:59 32.95610° -117.27966° 8 min 0.03 0.01
2022 Nov 15, 04:51 32.95608° -117.27966° 2 min 0.03 0.03
180°
2022 Nov 15, 04:49 32.95610° -117.27966° 8 min 0.03 0.00
2022 Nov 15, 04:41 32.95610° -117.27966° 2 min 0.03 0.00
2022 Nov 15, 04:39 32.95610° -117.27966° 8 min 0.03 0.01
2022 Nov 15, 04:31 32.95608° -117.27966° 2 min 0.03 0.00
2022 Nov 15, 04:29 32.95608° -117.27966° 8 min 0.03 0.02
121°
2022 Nov 15, 04:21 32.95610° -117.27970° 2 min 0.03 0.04
326°
2022 Nov 15, 04:19 32.95608° -117.27969° 8 min 0.03 0.02
270°
2022 Nov 15, 04:11 32.95608° -117.27964° 2 min 0.03 0.05
135°
2022 Nov 15, 04:09 32.95610° -117.27966° 8 min 0.03 0.00
2022 Nov 15, 04:01 32.95610° -117.27966° 2 min 0.03 0.00
2022 Nov 15, 03:59 32.95610° -117.27966° 8 min 0.03 0.01
90°
2022 Nov 15, 03:51 32.95610° -117.27969° 2 min 0.03 0.00
2022 Nov 15, 03:49 32.95610° -117.27969° 8 min 0.03 0.01
151°
2022 Nov 15, 03:41 32.95612° -117.27970° 2 min 0.03 0.04
2022 Nov 15, 03:39 32.95610° -117.27970° 8 min 0.03 0.04
282°
2022 Nov 15, 03:31 32.95608° -117.27959° 2 min 0.03 0.00
2022 Nov 15, 03:29 32.95608° -117.27959° 8 min 0.03 0.00
2022 Nov 15, 03:21 32.95608° -117.27959° 2 min 0.03 0.00
2022 Nov 15, 03:19 32.95608° -117.27959° 8 min 0.03 0.01
312°
2022 Nov 15, 03:11 32.95607° -117.27958° 1 min 0.03 0.02
180°
2022 Nov 15, 03:09 32.95608° -117.27958° 8 min 0.03 0.00
2022 Nov 15, 03:01 32.95608° -117.27958° 2 min 0.03 0.03
270°
2022 Nov 15, 02:59 32.95608° -117.27956° 8 min 0.03 0.00
2022 Nov 15, 02:51 32.95608° -117.27956° 2 min 0.03 0.00
2022 Nov 15, 02:49 32.95608° -117.27956° 8 min 0.03 0.00
2022 Nov 15, 02:41 32.95608° -117.27956° 2 min 0.03 0.03
270°
2022 Nov 15, 02:39 32.95608° -117.27953° 8 min 0.03 0.01
180°
2022 Nov 15, 02:31 32.95610° -117.27953° 2 min 0.03 0.00
2022 Nov 15, 02:29 32.95610° -117.27953° 8 min 0.03 0.01
315°
2022 Nov 15, 02:21 32.95608° -117.27951° 2 min 0.03 0.03
90°
2022 Nov 15, 02:19 32.95608° -117.27953° 8 min 0.03 0.02
270°
2022 Nov 15, 02:11 32.95608° -117.27949° 2 min 0.03 0.00
2022 Nov 15, 02:09 32.95608° -117.27949° 8 min 0.03 0.01
90°
2022 Nov 15, 02:01 32.95608° -117.27951° 2 min 0.03 0.02
2022 Nov 15, 01:59 32.95607° -117.27951° 8 min 0.03 0.01
239°
2022 Nov 15, 01:51 32.95608° -117.27949° 2 min 0.03 0.00